Time;durP1;ratioP1;P1;durP2;ratioP2;P2;SDS_P1;SDS_P2;PMS_P1;PMS_P2;Temp;Humidity;BMP_temperature;BMP_pressure;BME280_temperature;BME280_humidity;BME280_pressure;Samples;Min_cycle;Max_cycle;Signal;HPM_P1;HPM_P2
2021/04/13 10:15:32;;;;;;;14.85;7.57;;;10.20;76.70;;;;;;12128076;27;20413;-78
2021/04/13 10:21:37;;;;;;;10.70;7.05;;;10.10;76.40;;;;;;12086412;28;20040;-77
2021/04/13 10:28:12;;;;;;;16.48;7.85;;;10.50;74.00;;;;;;12087619;28;20060;-77
2021/04/13 10:34:18;;;;;;;9.55;6.00;;;10.60;75.20;;;;;;12086152;28;20047;-78
2021/04/13 10:40:24;;;;;;;11.77;6.05;;;10.70;71.80;;;;;;12084539;28;20044;-78
2021/04/13 10:46:30;;;;;;;9.77;6.20;;;10.70;69.80;;;;;;12084186;28;20093;-78
2021/04/13 10:52:55;;;;;;;12.02;6.22;;;10.90;71.10;;;;;;12091450;28;20052;-78
2021/04/13 10:59:28;;;;;;;9.95;6.05;;;10.50;65.80;;;;;;12044404;28;20045;-79
2021/04/13 11:05:48;;;;;;;11.45;6.05;;;10.80;70.10;;;;;;12085873;28;20086;-80
2021/04/13 11:12:07;;;;;;;12.70;6.05;;;11.00;68.30;;;;;;12079464;28;20060;-81
2021/04/13 11:18:01;;;;;;;10.38;6.43;;;11.00;66.70;;;;;;12074864;28;20105;-80
2021/04/13 11:24:37;;;;;;;12.48;6.15;;;10.80;63.70;;;;;;12061872;28;20045;-80
2021/04/13 11:31:03;;;;;;;12.27;5.90;;;11.00;67.80;;;;;;12048432;28;20041;-81
2021/04/13 11:37:05;;;;;;;11.68;7.03;;;11.50;65.20;;;;;;12046903;28;20415;-81
2021/04/13 11:42:55;;;;;;;9.18;6.07;;;11.70;65.20;;;;;;12050835;28;20484;-80
2021/04/13 11:48:49;;;;;;;8.90;5.88;;;12.00;64.10;;;;;;12050224;28;20075;-82
2021/04/13 11:54:48;;;;;;;10.43;5.30;;;12.20;63.00;;;;;;12054432;28;20523;-80
2021/04/13 12:00:35;;;;;;;6.78;4.70;;;12.20;61.60;;;;;;12046524;28;20272;-79
2021/04/13 12:06:53;;;;;;;9.48;5.68;;;12.20;55.80;;;;;;12055865;28;20503;-82
2021/04/13 12:12:48;;;;;;;8.50;5.72;;;12.40;58.20;;;;;;12060411;28;20048;-80
2021/04/13 12:19:11;;;;;;;7.55;4.95;;;12.50;58.10;;;;;;12065146;28;20081;-78
2021/04/13 12:24:58;;;;;;;8.68;5.05;;;12.80;58.50;;;;;;12051570;28;20462;-76
2021/04/13 12:30:58;;;;;;;9.75;5.38;;;13.00;58.00;;;;;;12030514;28;20060;-76
2021/04/13 12:37:00;;;;;;;10.23;5.38;;;13.10;53.90;;;;;;12030814;28;20135;-75
2021/04/13 12:42:50;;;;;;;8.68;4.93;;;13.20;58.10;;;;;;12027639;28;20041;-75
2021/04/13 12:48:45;;;;;;;9.98;5.40;;;13.40;56.90;;;;;;12025321;28;20048;-75
2021/04/13 12:54:33;;;;;;;9.32;4.65;;;13.30;54.90;;;;;;12027479;28;20055;-74
2021/04/13 13:00:23;;;;;;;7.53;4.65;;;13.50;56.60;;;;;;12031023;28;20045;-76
2021/04/13 13:06:21;;;;;;;7.57;3.58;;;13.80;55.80;;;;;;12027880;28;20900;-75
2021/04/13 13:12:14;;;;;;;9.52;5.20;;;14.00;54.90;;;;;;12028181;28;20049;-76
2021/04/13 13:18:18;;;;;;;7.87;4.43;;;13.60;51.40;;;;;;12032318;28;20053;-75
2021/04/13 13:24:15;;;;;;;;;;;13.70;53.90;;;;;;12026814;28;20052;-74
2021/04/13 13:30:06;;;;;;;8.73;3.67;;;14.00;54.40;;;;;;12030471;28;19924;-74
2021/04/13 13:35:54;;;;;;;6.05;5.03;;;14.20;53.50;;;;;;12024665;28;20106;-74
2021/04/13 13:41:44;;;;;;;8.43;4.30;;;14.00;52.60;;;;;;12030348;28;20041;-79
2021/04/13 13:47:37;;;;;;;6.85;3.65;;;14.20;54.10;;;;;;12043265;28;20053;-80
2021/04/13 13:53:26;;;;;;;6.80;3.50;;;14.30;54.20;;;;;;12043612;28;20048;-80
2021/04/13 14:03:31;;;;;;;6.65;4.18;;;14.60;52.60;;;;;;12173672;27;20384;-80
2021/04/13 14:09:18;;;;;;;7.60;4.30;;;14.90;50.60;;;;;;12083523;28;20499;-79
2021/04/13 14:15:17;;;;;;;8.07;4.90;;;15.20;49.70;;;;;;12075547;28;20435;-80
2021/04/13 14:21:09;;;;;;;6.97;4.30;;;15.00;51.20;;;;;;12072121;28;20048;-80
2021/04/13 14:27:08;;;;;;;7.15;3.50;;;15.20;52.50;;;;;;12068887;28;20532;-79
2021/04/13 14:32:55;;;;;;;6.32;3.90;;;14.80;50.80;;;;;;12062850;28;20036;-80
2021/04/13 14:38:42;;;;;;;6.75;4.22;;;14.50;51.70;;;;;;12063674;28;20076;-78
2021/04/13 14:44:29;;;;;;;18.35;12.10;;;14.80;48.90;;;;;;12070375;28;20412;-78
2021/04/13 14:50:19;;;;;;;19.88;13.00;;;15.00;50.50;;;;;;12067380;28;20158;-79
2021/04/13 14:56:07;;;;;;;15.32;11.43;;;15.30;51.10;;;;;;12072896;28;20064;-78
2021/04/13 15:01:55;;;;;;;10.07;5.03;;;14.80;48.40;;;;;;12065309;28;20075;-79
2021/04/13 15:07:42;;;;;;;8.05;4.18;;;14.70;49.90;;;;;;12068085;28;20143;-80
2021/04/13 15:13:29;;;;;;;5.22;3.88;;;15.10;49.80;;;;;;12045845;28;20045;-79
2021/04/13 15:19:18;;;;;;;8.45;5.03;;;15.50;50.50;;;;;;12030735;28;20047;-79
2021/04/13 15:25:06;;;;;;;8.48;5.22;;;15.30;50.40;;;;;;12032752;28;20049;-79
2021/04/13 15:30:53;;;;;;;27.45;16.10;;;15.00;50.80;;;;;;12027821;28;20087;-78
2021/04/13 15:36:47;;;;;;;8.95;4.25;;;15.00;52.20;;;;;;12028563;28;20056;-79
2021/04/13 15:42:42;;;;;;;6.22;4.15;;;15.30;51.00;;;;;;12026438;28;20049;-80
2021/04/13 15:48:35;;;;;;;8.20;4.50;;;15.60;49.20;;;;;;12025701;28;20106;-79
2021/04/13 15:54:22;;;;;;;5.50;4.30;;;15.80;47.60;;;;;;12031239;28;20045;-79
2021/04/13 16:00:10;;;;;;;6.38;3.92;;;15.80;49.00;;;;;;12028329;28;20975;-78
2021/04/13 16:05:57;;;;;;;8.27;4.13;;;16.10;48.80;;;;;;12026399;28;20525;-79
2021/04/13 16:11:44;;;;;;;6.32;4.18;;;16.10;48.10;;;;;;12033881;28;20048;-79
2021/04/13 16:17:31;;;;;;;6.82;3.70;;;15.70;48.40;;;;;;12027100;28;20053;-79
2021/04/13 16:23:19;;;;;;;5.57;3.50;;;15.40;49.00;;;;;;12027479;28;20491;-82
2021/04/13 16:29:06;;;;;;;10.00;4.68;;;17.20;44.20;;;;;;12038598;28;20052;-80
2021/04/13 16:34:56;;;;;;;7.78;3.88;;;18.80;41.20;;;;;;12030947;28;20443;-77
2021/04/13 16:40:48;;;;;;;19.17;10.05;;;17.10;42.40;;;;;;12036176;28;20518;-77
2021/04/13 16:46:35;;;;;;;6.38;3.30;;;15.70;44.60;;;;;;12036820;28;20071;-79
2021/04/13 16:52:23;;;;;;;4.78;2.90;;;14.90;45.40;;;;;;12036102;28;20064;-77
2021/04/13 16:58:12;;;;;;;5.50;3.03;;;15.00;46.90;;;;;;12044097;28;20084;-78
2021/04/13 17:04:02;;;;;;;3.45;3.03;;;19.90;39.70;;;;;;12032049;28;20555;-76
2021/04/13 17:09:55;;;;;;;5.28;2.78;;;23.60;33.90;;;;;;12036209;28;20064;-79
2021/04/13 17:15:46;;;;;;;5.13;2.70;;;24.60;31.10;;;;;;12029276;28;20053;-78
2021/04/13 17:21:36;;;;;;;7.60;2.90;;;21.80;32.10;;;;;;12030930;28;20095;-77
2021/04/13 17:27:26;;;;;;;5.32;3.08;;;18.70;35.70;;;;;;12036657;28;20767;-77
2021/04/13 17:33:13;;;;;;;6.10;3.10;;;17.50;38.30;;;;;;12032701;28;20048;-78
2021/04/13 17:39:08;;;;;;;3.17;2.25;;;17.00;39.00;;;;;;12035571;28;20094;-76
2021/04/13 17:44:57;;;;;;;5.70;2.40;;;16.70;38.80;;;;;;12035099;28;20118;-76
2021/04/13 17:50:47;;;;;;;2.15;1.88;;;16.10;39.10;;;;;;12030410;28;20102;-77
2021/04/13 17:56:39;;;;;;;4.18;2.10;;;15.30;41.60;;;;;;12041593;28;20048;-77
2021/04/13 18:02:30;;;;;;;3.22;2.33;;;14.80;43.10;;;;;;12034026;28;20047;-78
2021/04/13 18:08:24;;;;;;;4.75;2.25;;;14.40;44.50;;;;;;12030255;28;20057;-78
2021/04/13 18:14:14;;;;;;;5.28;2.00;;;14.00;44.40;;;;;;12027040;28;20056;-77
2021/04/13 18:20:05;;;;;;;3.78;2.20;;;13.70;45.50;;;;;;12029717;28;20673;-77
2021/04/13 18:25:55;;;;;;;6.03;2.10;;;13.50;46.70;;;;;;12031612;28;20507;-78
2021/04/13 18:31:46;;;;;;;4.55;2.30;;;13.30;47.10;;;;;;12022188;28;20041;-78
2021/04/13 18:37:37;;;;;;;3.28;2.20;;;13.10;46.80;;;;;;12025393;28;20061;-77
2021/04/13 18:43:30;;;;;;;11.73;6.75;;;12.90;47.50;;;;;;12027281;28;20049;-79
2021/04/13 18:49:19;;;;;;;3.60;2.33;;;12.90;48.30;;;;;;12036122;28;20508;-79
2021/04/13 18:55:13;;;;;;;7.53;2.75;;;12.70;48.90;;;;;;12047333;28;20064;-78
2021/04/13 19:01:03;;;;;;;;;;;12.60;49.60;;;;;;12045349;28;20056;-78
2021/04/13 19:06:56;;;;;;;7.70;2.80;;;12.50;50.50;;;;;;12045729;28;19928;-79
2021/04/13 19:12:47;;;;;;;5.20;2.38;;;12.40;51.60;;;;;;12040824;28;20072;-79
2021/04/13 19:18:40;;;;;;;5.85;2.88;;;12.40;51.60;;;;;;12039095;28;20044;-78
2021/04/13 19:24:30;;;;;;;12.20;4.20;;;12.30;52.10;;;;;;12041361;28;20499;-79
2021/04/13 19:30:22;;;;;;;5.32;3.15;;;12.20;52.30;;;;;;12038145;28;20041;-78
2021/04/13 19:36:15;;;;;;;6.93;3.75;;;12.20;53.70;;;;;;12038683;28;20121;-79
2021/04/13 19:42:09;;;;;;;10.70;2.67;;;12.10;53.90;;;;;;12040246;28;20423;-78
2021/04/13 19:48:03;;;;;;;8.45;2.90;;;12.00;52.50;;;;;;12051951;28;20052;-80
2021/04/13 19:53:57;;;;;;;5.97;2.88;;;12.00;53.80;;;;;;12043647;28;20145;-79
2021/04/13 19:59:47;;;;;;;5.72;2.75;;;12.00;55.20;;;;;;12036645;28;20049;-78
2021/04/13 20:05:34;;;;;;;10.90;4.82;;;11.90;56.50;;;;;;12031052;28;20086;-78
2021/04/13 20:11:30;;;;;;;5.80;3.30;;;11.80;57.50;;;;;;12030391;28;20048;-78
2021/04/13 20:17:22;;;;;;;4.50;2.85;;;11.70;58.60;;;;;;12038844;28;20044;-78
2021/04/13 20:23:14;;;;;;;4.38;2.50;;;11.60;59.70;;;;;;12027979;28;20060;-78
2021/04/13 20:29:05;;;;;;;5.28;2.50;;;11.50;59.10;;;;;;12034851;28;20045;-79
2021/04/13 20:41:11;;;;;;;10.18;3.33;;;11.10;58.40;;;;;;11944396;28;20479;-79
2021/04/13 20:47:12;;;;;;;9.05;4.20;;;11.10;59.70;;;;;;11940210;28;20451;-78
2021/04/13 20:53:01;;;;;;;4.82;2.85;;;11.10;60.50;;;;;;11945592;28;20052;-78
2021/04/13 20:58:56;;;;;;;7.70;3.20;;;11.00;60.10;;;;;;11943308;28;20049;-79
2021/04/13 21:04:53;;;;;;;5.55;3.70;;;10.90;61.00;;;;;;11939028;28;20079;-79
2021/04/13 21:10:50;;;;;;;8.55;3.97;;;10.80;61.20;;;;;;11939225;28;20053;-79
2021/04/13 21:16:37;;;;;;;7.72;3.95;;;10.80;62.50;;;;;;11991108;28;20049;-79
2021/04/13 21:22:28;;;;;;;8.38;4.63;;;10.70;61.90;;;;;;12034680;28;20420;-78
2021/04/13 21:28:22;;;;;;;15.45;7.03;;;10.60;62.00;;;;;;12030325;28;20040;-78
2021/04/13 21:34:09;;;;;;;15.80;5.40;;;10.50;62.70;;;;;;12035493;28;20052;-78
2021/04/13 21:39:59;;;;;;;9.05;4.70;;;10.40;64.20;;;;;;12034156;28;20038;-78
2021/04/13 21:45:51;;;;;;;10.73;5.30;;;10.30;64.30;;;;;;12034440;28;20056;-79
2021/04/13 21:51:43;;;;;;;12.50;6.63;;;10.20;65.00;;;;;;12034253;28;20384;-79
2021/04/13 21:57:35;;;;;;;9.82;4.72;;;10.10;66.30;;;;;;12029982;28;20055;-79
2021/04/13 22:03:25;;;;;;;12.80;5.80;;;10.00;66.50;;;;;;12030511;28;20056;-79
2021/04/13 22:09:14;;;;;;;11.55;5.50;;;9.90;66.40;;;;;;12035087;28;20052;-78
2021/04/13 22:15:05;;;;;;;8.82;4.68;;;9.90;66.60;;;;;;12036312;28;20045;-78
2021/04/13 22:20:55;;;;;;;12.50;5.55;;;9.80;66.40;;;;;;12038938;28;20060;-80
2021/04/13 22:26:46;;;;;;;15.88;7.20;;;9.70;66.60;;;;;;12041450;28;20059;-80
2021/04/13 22:32:37;;;;;;;15.25;6.97;;;9.70;67.60;;;;;;12037903;28;20107;-79
2021/04/13 22:38:32;;;;;;;13.77;6.70;;;9.60;68.20;;;;;;12041873;28;20060;-79
2021/04/13 22:44:19;;;;;;;14.13;7.10;;;9.50;68.70;;;;;;12046593;28;20087;-79
2021/04/13 22:50:10;;;;;;;15.48;7.55;;;9.50;69.20;;;;;;12047815;28;20036;-79
2021/04/13 22:56:02;;;;;;;24.38;8.63;;;9.60;69.10;;;;;;12041174;28;20057;-79
2021/04/13 23:01:49;;;;;;;15.50;7.70;;;9.50;69.60;;;;;;12040327;28;20071;-79
2021/04/13 23:07:37;;;;;;;21.00;8.90;;;9.40;69.50;;;;;;12042362;28;20048;-79
2021/04/13 23:13:23;;;;;;;16.92;7.97;;;9.30;70.10;;;;;;12041881;28;20925;-79
2021/04/13 23:19:10;;;;;;;13.02;7.43;;;9.30;70.50;;;;;;12041834;28;20511;-79
2021/04/13 23:24:57;;;;;;;14.35;6.63;;;9.20;70.40;;;;;;12035975;28;20052;-79
2021/04/13 23:30:43;;;;;;;11.98;6.22;;;9.10;71.10;;;;;;12040900;28;20040;-80
2021/04/13 23:36:30;;;;;;;12.65;5.90;;;9.20;71.00;;;;;;12042953;28;20125;-80
2021/04/13 23:42:17;;;;;;;11.32;5.88;;;9.10;71.00;;;;;;12033418;28;20053;-79
2021/04/13 23:48:04;;;;;;;9.25;5.28;;;9.00;71.00;;;;;;12033919;28;20057;-79
2021/04/13 23:53:51;;;;;;;12.48;5.80;;;9.00;70.70;;;;;;12038252;28;20074;-80
2021/04/13 23:59:39;;;;;;;10.75;5.55;;;8.90;70.60;;;;;;12035010;28;20048;-79
